sensor_id;sensor_type;location;lat;lon;timestamp;P1;durP1;ratioP1;P2;durP2;ratioP2
71973;SDS011;59840;52.122;5.404;2023-08-01T00:01:36;2.65;;;1.00;;
71973;SDS011;59840;52.122;5.404;2023-08-01T00:04:03;4.05;;;1.30;;
71973;SDS011;59840;52.122;5.404;2023-08-01T00:06:30;2.88;;;1.17;;
71973;SDS011;59840;52.122;5.404;2023-08-01T00:08:57;3.60;;;1.10;;
71973;SDS011;59840;52.122;5.404;2023-08-01T00:11:23;1.65;;;0.80;;
71973;SDS011;59840;52.122;5.404;2023-08-01T00:13:50;4.28;;;0.90;;
71973;SDS011;59840;52.122;5.404;2023-08-01T00:16:16;3.22;;;1.05;;
71973;SDS011;59840;52.122;5.404;2023-08-01T00:18:43;3.42;;;1.10;;
71973;SDS011;59840;52.122;5.404;2023-08-01T00:21:09;2.37;;;0.93;;
71973;SDS011;59840;52.122;5.404;2023-08-01T00:23:37;2.78;;;1.02;;
71973;SDS011;59840;52.122;5.404;2023-08-01T00:26:04;3.78;;;1.10;;
71973;SDS011;59840;52.122;5.404;2023-08-01T00:28:31;3.53;;;1.02;;
71973;SDS011;59840;52.122;5.404;2023-08-01T00:31:01;2.97;;;1.00;;
71973;SDS011;59840;52.122;5.404;2023-08-01T00:33:32;5.07;;;1.10;;
71973;SDS011;59840;52.122;5.404;2023-08-01T00:35:59;3.63;;;1.48;;
71973;SDS011;59840;52.122;5.404;2023-08-01T00:38:26;2.58;;;1.10;;
71973;SDS011;59840;52.122;5.404;2023-08-01T00:40:53;2.00;;;0.90;;
71973;SDS011;59840;52.122;5.404;2023-08-01T00:43:19;4.75;;;1.30;;
71973;SDS011;59840;52.122;5.404;2023-08-01T00:45:46;4.80;;;1.17;;
71973;SDS011;59840;52.122;5.404;2023-08-01T00:48:13;2.38;;;0.73;;
71973;SDS011;59840;52.122;5.404;2023-08-01T00:50:39;3.05;;;1.13;;
71973;SDS011;59840;52.122;5.404;2023-08-01T00:53:06;2.95;;;0.93;;
71973;SDS011;59840;52.122;5.404;2023-08-01T00:55:33;3.90;;;1.08;;
71973;SDS011;59840;52.122;5.404;2023-08-01T00:58:01;2.30;;;1.07;;
71973;SDS011;59840;52.122;5.404;2023-08-01T01:00:28;1.80;;;1.05;;
71973;SDS011;59840;52.122;5.404;2023-08-01T01:02:55;3.55;;;1.30;;
71973;SDS011;59840;52.122;5.404;2023-08-01T01:05:22;2.90;;;1.10;;
71973;SDS011;59840;52.122;5.404;2023-08-01T01:07:50;3.90;;;1.40;;
71973;SDS011;59840;52.122;5.404;2023-08-01T01:10:17;2.40;;;1.07;;
71973;SDS011;59840;52.122;5.404;2023-08-01T01:12:44;1.75;;;1.10;;
71973;SDS011;59840;52.122;5.404;2023-08-01T01:15:10;3.47;;;1.10;;
71973;SDS011;59840;52.122;5.404;2023-08-01T01:17:37;2.13;;;1.00;;
71973;SDS011;59840;52.122;5.404;2023-08-01T01:20:03;5.88;;;1.05;;
71973;SDS011;59840;52.122;5.404;2023-08-01T01:22:30;2.67;;;1.20;;
71973;SDS011;59840;52.122;5.404;2023-08-01T01:24:59;2.72;;;0.93;;
71973;SDS011;59840;52.122;5.404;2023-08-01T01:27:27;2.53;;;1.40;;
71973;SDS011;59840;52.122;5.404;2023-08-01T01:29:54;5.80;;;1.50;;
71973;SDS011;59840;52.122;5.404;2023-08-01T01:32:21;3.95;;;1.55;;
71973;SDS011;59840;52.122;5.404;2023-08-01T01:34:49;2.83;;;1.20;;
71973;SDS011;59840;52.122;5.404;2023-08-01T01:37:16;5.95;;;1.40;;
71973;SDS011;59840;52.122;5.404;2023-08-01T01:39:42;3.13;;;1.50;;
71973;SDS011;59840;52.122;5.404;2023-08-01T01:42:09;2.85;;;1.40;;
71973;SDS011;59840;52.122;5.404;2023-08-01T01:44:35;3.60;;;1.50;;
71973;SDS011;59840;52.122;5.404;2023-08-01T01:47:02;5.67;;;1.90;;
71973;SDS011;59840;52.122;5.404;2023-08-01T01:49:29;3.75;;;1.50;;
71973;SDS011;59840;52.122;5.404;2023-08-01T01:51:56;2.53;;;1.30;;
71973;SDS011;59840;52.122;5.404;2023-08-01T01:54:24;3.70;;;1.40;;
71973;SDS011;59840;52.122;5.404;2023-08-01T01:56:50;4.57;;;1.80;;
71973;SDS011;59840;52.122;5.404;2023-08-01T01:59:18;5.97;;;1.67;;
71973;SDS011;59840;52.122;5.404;2023-08-01T02:01:44;5.50;;;1.70;;
71973;SDS011;59840;52.122;5.404;2023-08-01T02:04:11;3.63;;;2.00;;
71973;SDS011;59840;52.122;5.404;2023-08-01T02:06:37;4.15;;;1.60;;
71973;SDS011;59840;52.122;5.404;2023-08-01T02:09:04;9.35;;;2.03;;
71973;SDS011;59840;52.122;5.404;2023-08-01T02:11:31;4.63;;;2.03;;
71973;SDS011;59840;52.122;5.404;2023-08-01T02:13:57;2.90;;;2.13;;
71973;SDS011;59840;52.122;5.404;2023-08-01T02:16:24;4.57;;;1.67;;
71973;SDS011;59840;52.122;5.404;2023-08-01T02:18:50;6.28;;;1.80;;
71973;SDS011;59840;52.122;5.404;2023-08-01T02:21:17;3.58;;;1.70;;
71973;SDS011;59840;52.122;5.404;2023-08-01T02:23:44;5.60;;;2.27;;
71973;SDS011;59840;52.122;5.404;2023-08-01T02:26:10;4.68;;;2.10;;
71973;SDS011;59840;52.122;5.404;2023-08-01T02:28:37;4.72;;;1.60;;
71973;SDS011;59840;52.122;5.404;2023-08-01T02:31:03;3.53;;;2.17;;
71973;SDS011;59840;52.122;5.404;2023-08-01T02:33:30;5.88;;;2.30;;
71973;SDS011;59840;52.122;5.404;2023-08-01T02:35:57;9.47;;;2.43;;
71973;SDS011;59840;52.122;5.404;2023-08-01T02:38:23;5.28;;;2.20;;
71973;SDS011;59840;52.122;5.404;2023-08-01T02:40:50;3.10;;;1.85;;
71973;SDS011;59840;52.122;5.404;2023-08-01T02:43:16;8.30;;;2.38;;
71973;SDS011;59840;52.122;5.404;2023-08-01T02:45:43;5.65;;;2.42;;
71973;SDS011;59840;52.122;5.404;2023-08-01T02:48:10;4.50;;;1.90;;
71973;SDS011;59840;52.122;5.404;2023-08-01T02:50:37;8.55;;;2.50;;
71973;SDS011;59840;52.122;5.404;2023-08-01T02:53:04;3.13;;;1.80;;
71973;SDS011;59840;52.122;5.404;2023-08-01T02:55:31;8.23;;;2.10;;
71973;SDS011;59840;52.122;5.404;2023-08-01T02:57:57;6.60;;;1.80;;
71973;SDS011;59840;52.122;5.404;2023-08-01T03:00:24;6.53;;;1.90;;
71973;SDS011;59840;52.122;5.404;2023-08-01T03:02:51;5.13;;;2.40;;
71973;SDS011;59840;52.122;5.404;2023-08-01T03:05:18;7.20;;;1.70;;
71973;SDS011;59840;52.122;5.404;2023-08-01T03:07:45;3.67;;;1.70;;
71973;SDS011;59840;52.122;5.404;2023-08-01T03:10:11;5.68;;;1.63;;
71973;SDS011;59840;52.122;5.404;2023-08-01T03:12:48;4.17;;;1.63;;
71973;SDS011;59840;52.122;5.404;2023-08-01T03:15:15;2.88;;;1.85;;
71973;SDS011;59840;52.122;5.404;2023-08-01T03:17:41;3.55;;;1.45;;
71973;SDS011;59840;52.122;5.404;2023-08-01T03:20:08;2.53;;;1.38;;
71973;SDS011;59840;52.122;5.404;2023-08-01T03:22:38;4.28;;;1.42;;
71973;SDS011;59840;52.122;5.404;2023-08-01T03:25:06;5.17;;;1.63;;
71973;SDS011;59840;52.122;5.404;2023-08-01T03:27:36;3.60;;;1.23;;
71973;SDS011;59840;52.122;5.404;2023-08-01T03:30:03;2.22;;;1.20;;
71973;SDS011;59840;52.122;5.404;2023-08-01T03:32:35;3.97;;;1.30;;
71973;SDS011;59840;52.122;5.404;2023-08-01T03:35:04;6.55;;;1.50;;
71973;SDS011;59840;52.122;5.404;2023-08-01T03:37:31;4.80;;;1.40;;
71973;SDS011;59840;52.122;5.404;2023-08-01T03:39:57;2.30;;;1.20;;
71973;SDS011;59840;52.122;5.404;2023-08-01T03:42:24;9.85;;;1.48;;
71973;SDS011;59840;52.122;5.404;2023-08-01T03:44:50;2.67;;;1.50;;
71973;SDS011;59840;52.122;5.404;2023-08-01T03:47:17;5.38;;;1.50;;
71973;SDS011;59840;52.122;5.404;2023-08-01T03:49:43;5.00;;;1.67;;
71973;SDS011;59840;52.122;5.404;2023-08-01T03:52:10;4.30;;;1.85;;
71973;SDS011;59840;52.122;5.404;2023-08-01T03:54:37;7.15;;;2.30;;
71973;SDS011;59840;52.122;5.404;2023-08-01T03:57:03;4.97;;;1.92;;
71973;SDS011;59840;52.122;5.404;2023-08-01T03:59:30;5.75;;;2.17;;
71973;SDS011;59840;52.122;5.404;2023-08-01T04:01:57;6.17;;;1.83;;
71973;SDS011;59840;52.122;5.404;2023-08-01T04:04:23;7.45;;;1.65;;
71973;SDS011;59840;52.122;5.404;2023-08-01T04:06:50;5.00;;;2.20;;
71973;SDS011;59840;52.122;5.404;2023-08-01T04:09:16;6.75;;;2.15;;
71973;SDS011;59840;52.122;5.404;2023-08-01T04:11:43;7.28;;;2.00;;
71973;SDS011;59840;52.122;5.404;2023-08-01T04:14:10;6.67;;;1.87;;
71973;SDS011;59840;52.122;5.404;2023-08-01T04:16:36;6.15;;;1.90;;
71973;SDS011;59840;52.122;5.404;2023-08-01T04:19:03;5.50;;;1.60;;
71973;SDS011;59840;52.122;5.404;2023-08-01T04:21:30;7.00;;;1.85;;
71973;SDS011;59840;52.122;5.404;2023-08-01T04:23:56;7.53;;;2.38;;
71973;SDS011;59840;52.122;5.404;2023-08-01T04:26:23;7.83;;;1.83;;
71973;SDS011;59840;52.122;5.404;2023-08-01T04:28:50;6.28;;;2.55;;
71973;SDS011;59840;52.122;5.404;2023-08-01T04:31:16;3.83;;;1.88;;
71973;SDS011;59840;52.122;5.404;2023-08-01T04:33:43;4.88;;;1.60;;
71973;SDS011;59840;52.122;5.404;2023-08-01T04:36:09;3.75;;;2.33;;
71973;SDS011;59840;52.122;5.404;2023-08-01T04:38:36;5.33;;;1.90;;
71973;SDS011;59840;52.122;5.404;2023-08-01T04:41:02;7.18;;;2.20;;
71973;SDS011;59840;52.122;5.404;2023-08-01T04:43:29;5.05;;;2.35;;
71973;SDS011;59840;52.122;5.404;2023-08-01T04:45:56;4.25;;;1.80;;
71973;SDS011;59840;52.122;5.404;2023-08-01T04:48:22;5.45;;;2.20;;
71973;SDS011;59840;52.122;5.404;2023-08-01T04:50:49;4.67;;;2.00;;
71973;SDS011;59840;52.122;5.404;2023-08-01T04:53:15;4.85;;;2.38;;
71973;SDS011;59840;52.122;5.404;2023-08-01T04:55:42;7.13;;;2.33;;
71973;SDS011;59840;52.122;5.404;2023-08-01T04:58:08;6.03;;;2.40;;
71973;SDS011;59840;52.122;5.404;2023-08-01T05:00:37;4.63;;;2.15;;
71973;SDS011;59840;52.122;5.404;2023-08-01T05:03:04;8.70;;;2.47;;
71973;SDS011;59840;52.122;5.404;2023-08-01T05:05:31;5.65;;;2.05;;
71973;SDS011;59840;52.122;5.404;2023-08-01T05:07:57;7.57;;;2.30;;
71973;SDS011;59840;52.122;5.404;2023-08-01T05:10:24;8.05;;;2.60;;
71973;SDS011;59840;52.122;5.404;2023-08-01T05:12:50;6.28;;;2.30;;
71973;SDS011;59840;52.122;5.404;2023-08-01T05:15:17;5.93;;;2.23;;
71973;SDS011;59840;52.122;5.404;2023-08-01T05:17:44;7.63;;;2.50;;
71973;SDS011;59840;52.122;5.404;2023-08-01T05:20:10;8.90;;;3.03;;
71973;SDS011;59840;52.122;5.404;2023-08-01T05:22:37;8.68;;;2.45;;
71973;SDS011;59840;52.122;5.404;2023-08-01T05:25:04;5.57;;;2.55;;
71973;SDS011;59840;52.122;5.404;2023-08-01T05:27:31;12.53;;;2.70;;
71973;SDS011;59840;52.122;5.404;2023-08-01T05:29:57;10.82;;;2.47;;
71973;SDS011;59840;52.122;5.404;2023-08-01T05:32:24;6.95;;;2.55;;
71973;SDS011;59840;52.122;5.404;2023-08-01T05:34:51;11.00;;;2.55;;
71973;SDS011;59840;52.122;5.404;2023-08-01T05:37:17;5.75;;;2.13;;
71973;SDS011;59840;52.122;5.404;2023-08-01T05:39:44;9.57;;;2.23;;
71973;SDS011;59840;52.122;5.404;2023-08-01T05:42:10;6.05;;;2.38;;
71973;SDS011;59840;52.122;5.404;2023-08-01T05:44:37;7.00;;;2.38;;
71973;SDS011;59840;52.122;5.404;2023-08-01T05:47:03;8.95;;;2.40;;
71973;SDS011;59840;52.122;5.404;2023-08-01T05:49:30;9.23;;;2.53;;
71973;SDS011;59840;52.122;5.404;2023-08-01T05:51:56;8.83;;;2.53;;
71973;SDS011;59840;52.122;5.404;2023-08-01T05:54:23;6.47;;;1.95;;
71973;SDS011;59840;52.122;5.404;2023-08-01T05:56:50;5.05;;;2.15;;
71973;SDS011;59840;52.122;5.404;2023-08-01T05:59:16;8.85;;;1.90;;
71973;SDS011;59840;52.122;5.404;2023-08-01T06:01:43;5.60;;;2.50;;
71973;SDS011;59840;52.122;5.404;2023-08-01T06:04:10;8.03;;;2.40;;
71973;SDS011;59840;52.122;5.404;2023-08-01T06:06:36;7.65;;;2.10;;
71973;SDS011;59840;52.122;5.404;2023-08-01T06:09:03;6.15;;;2.00;;
71973;SDS011;59840;52.122;5.404;2023-08-01T06:11:30;5.95;;;1.92;;
71973;SDS011;59840;52.122;5.404;2023-08-01T06:14:00;7.60;;;1.85;;
71973;SDS011;59840;52.122;5.404;2023-08-01T06:17:01;7.07;;;1.80;;
71973;SDS011;59840;52.122;5.404;2023-08-01T06:19:43;7.60;;;2.30;;
71973;SDS011;59840;52.122;5.404;2023-08-01T06:22:10;10.05;;;2.00;;
71973;SDS011;59840;52.122;5.404;2023-08-01T06:24:37;13.52;;;1.63;;
71973;SDS011;59840;52.122;5.404;2023-08-01T06:27:03;6.10;;;1.83;;
71973;SDS011;59840;52.122;5.404;2023-08-01T06:29:31;4.50;;;1.63;;
71973;SDS011;59840;52.122;5.404;2023-08-01T06:31:58;6.45;;;1.73;;
71973;SDS011;59840;52.122;5.404;2023-08-01T06:34:25;4.43;;;1.80;;
71973;SDS011;59840;52.122;5.404;2023-08-01T06:36:52;9.40;;;1.88;;
71973;SDS011;59840;52.122;5.404;2023-08-01T06:39:19;5.25;;;2.28;;
71973;SDS011;59840;52.122;5.404;2023-08-01T06:41:46;4.77;;;1.90;;
71973;SDS011;59840;52.122;5.404;2023-08-01T06:44:13;8.35;;;1.88;;
71973;SDS011;59840;52.122;5.404;2023-08-01T06:46:39;5.25;;;1.55;;
71973;SDS011;59840;52.122;5.404;2023-08-01T06:49:06;6.18;;;1.90;;
71973;SDS011;59840;52.122;5.404;2023-08-01T06:51:33;4.45;;;1.40;;
71973;SDS011;59840;52.122;5.404;2023-08-01T06:54:00;5.50;;;1.70;;
71973;SDS011;59840;52.122;5.404;2023-08-01T06:56:26;5.22;;;1.50;;
71973;SDS011;59840;52.122;5.404;2023-08-01T06:58:53;5.88;;;1.83;;
71973;SDS011;59840;52.122;5.404;2023-08-01T07:01:19;6.78;;;1.90;;
71973;SDS011;59840;52.122;5.404;2023-08-01T07:03:46;9.40;;;1.55;;
71973;SDS011;59840;52.122;5.404;2023-08-01T07:06:13;5.57;;;1.80;;
71973;SDS011;59840;52.122;5.404;2023-08-01T07:08:39;5.78;;;1.50;;
71973;SDS011;59840;52.122;5.404;2023-08-01T07:11:06;5.00;;;1.95;;
71973;SDS011;59840;52.122;5.404;2023-08-01T07:13:32;6.20;;;1.58;;
71973;SDS011;59840;52.122;5.404;2023-08-01T07:15:59;5.72;;;1.67;;
71973;SDS011;59840;52.122;5.404;2023-08-01T07:18:25;7.27;;;1.47;;
71973;SDS011;59840;52.122;5.404;2023-08-01T07:21:02;3.15;;;1.38;;
71973;SDS011;59840;52.122;5.404;2023-08-01T07:23:30;4.45;;;1.85;;
71973;SDS011;59840;52.122;5.404;2023-08-01T07:25:57;2.95;;;1.38;;
71973;SDS011;59840;52.122;5.404;2023-08-01T07:28:23;4.47;;;1.65;;
71973;SDS011;59840;52.122;5.404;2023-08-01T07:31:00;3.97;;;1.67;;
71973;SDS011;59840;52.122;5.404;2023-08-01T07:33:33;4.05;;;0.90;;
71973;SDS011;59840;52.122;5.404;2023-08-01T07:36:01;3.97;;;1.40;;
71973;SDS011;59840;52.122;5.404;2023-08-01T07:38:27;3.47;;;1.20;;
71973;SDS011;59840;52.122;5.404;2023-08-01T07:40:54;3.17;;;1.10;;
71973;SDS011;59840;52.122;5.404;2023-08-01T07:43:21;4.63;;;1.17;;
71973;SDS011;59840;52.122;5.404;2023-08-01T07:45:49;3.67;;;1.50;;
71973;SDS011;59840;52.122;5.404;2023-08-01T07:48:17;4.80;;;2.17;;
71973;SDS011;59840;52.122;5.404;2023-08-01T07:50:43;2.78;;;1.30;;
71973;SDS011;59840;52.122;5.404;2023-08-01T07:53:10;5.78;;;1.30;;
71973;SDS011;59840;52.122;5.404;2023-08-01T07:55:36;3.00;;;0.90;;
71973;SDS011;59840;52.122;5.404;2023-08-01T07:58:03;4.07;;;1.58;;
71973;SDS011;59840;52.122;5.404;2023-08-01T08:00:30;5.40;;;1.30;;
71973;SDS011;59840;52.122;5.404;2023-08-01T08:02:57;3.75;;;1.30;;
71973;SDS011;59840;52.122;5.404;2023-08-01T08:05:23;3.17;;;1.00;;
71973;SDS011;59840;52.122;5.404;2023-08-01T08:07:50;3.90;;;1.37;;
71973;SDS011;59840;52.122;5.404;2023-08-01T08:10:17;2.33;;;1.10;;
71973;SDS011;59840;52.122;5.404;2023-08-01T08:12:44;5.68;;;1.10;;
71973;SDS011;59840;52.122;5.404;2023-08-01T08:15:10;5.53;;;1.20;;
71973;SDS011;59840;52.122;5.404;2023-08-01T08:17:37;5.50;;;1.45;;
71973;SDS011;59840;52.122;5.404;2023-08-01T08:20:04;3.60;;;1.80;;
71973;SDS011;59840;52.122;5.404;2023-08-01T08:22:32;4.82;;;1.23;;
71973;SDS011;59840;52.122;5.404;2023-08-01T08:24:59;4.18;;;1.40;;
71973;SDS011;59840;52.122;5.404;2023-08-01T08:27:25;3.60;;;0.88;;
71973;SDS011;59840;52.122;5.404;2023-08-01T08:29:52;4.60;;;1.20;;
71973;SDS011;59840;52.122;5.404;2023-08-01T08:32:18;3.90;;;1.30;;
71973;SDS011;59840;52.122;5.404;2023-08-01T08:34:45;4.45;;;1.35;;
71973;SDS011;59840;52.122;5.404;2023-08-01T08:37:11;2.30;;;0.80;;
71973;SDS011;59840;52.122;5.404;2023-08-01T08:39:38;4.47;;;1.02;;
71973;SDS011;59840;52.122;5.404;2023-08-01T08:42:05;4.50;;;1.27;;
71973;SDS011;59840;52.122;5.404;2023-08-01T08:44:31;1.90;;;0.97;;
71973;SDS011;59840;52.122;5.404;2023-08-01T08:47:06;3.25;;;0.95;;
71973;SDS011;59840;52.122;5.404;2023-08-01T08:49:35;4.55;;;1.00;;
71973;SDS011;59840;52.122;5.404;2023-08-01T08:52:02;3.60;;;1.10;;
71973;SDS011;59840;52.122;5.404;2023-08-01T08:54:29;4.32;;;0.93;;
71973;SDS011;59840;52.122;5.404;2023-08-01T08:56:58;8.87;;;1.10;;
71973;SDS011;59840;52.122;5.404;2023-08-01T08:59:25;1.95;;;1.13;;
71973;SDS011;59840;52.122;5.404;2023-08-01T09:01:53;5.43;;;1.00;;
71973;SDS011;59840;52.122;5.404;2023-08-01T09:04:19;3.40;;;0.80;;
71973;SDS011;59840;52.122;5.404;2023-08-01T09:06:48;2.22;;;1.10;;
71973;SDS011;59840;52.122;5.404;2023-08-01T09:09:17;2.60;;;0.97;;
71973;SDS011;59840;52.122;5.404;2023-08-01T09:14:11;3.33;;;0.90;;
71973;SDS011;59840;52.122;5.404;2023-08-01T09:16:39;3.47;;;0.98;;
71973;SDS011;59840;52.122;5.404;2023-08-01T09:19:08;3.55;;;0.90;;
71973;SDS011;59840;52.122;5.404;2023-08-01T09:21:35;7.13;;;1.60;;
71973;SDS011;59840;52.122;5.404;2023-08-01T09:24:09;2.53;;;0.88;;
71973;SDS011;59840;52.122;5.404;2023-08-01T09:26:37;3.10;;;1.10;;
71973;SDS011;59840;52.122;5.404;2023-08-01T09:29:04;3.67;;;1.23;;
71973;SDS011;59840;52.122;5.404;2023-08-01T09:31:32;1.92;;;1.00;;
71973;SDS011;59840;52.122;5.404;2023-08-01T09:34:01;3.37;;;1.10;;
71973;SDS011;59840;52.122;5.404;2023-08-01T09:36:32;3.92;;;1.20;;
71973;SDS011;59840;52.122;5.404;2023-08-01T09:39:01;2.97;;;1.23;;
71973;SDS011;59840;52.122;5.404;2023-08-01T09:41:30;2.08;;;0.90;;
71973;SDS011;59840;52.122;5.404;2023-08-01T09:43:57;5.03;;;1.10;;
71973;SDS011;59840;52.122;5.404;2023-08-01T09:46:24;2.40;;;1.13;;
71973;SDS011;59840;52.122;5.404;2023-08-01T09:48:51;4.10;;;1.00;;
71973;SDS011;59840;52.122;5.404;2023-08-01T09:51:17;2.90;;;0.60;;
71973;SDS011;59840;52.122;5.404;2023-08-01T09:53:52;3.80;;;1.08;;
71973;SDS011;59840;52.122;5.404;2023-08-01T09:56:20;3.60;;;1.00;;
71973;SDS011;59840;52.122;5.404;2023-08-01T09:58:50;4.30;;;1.20;;
71973;SDS011;59840;52.122;5.404;2023-08-01T10:01:19;2.92;;;1.00;;
71973;SDS011;59840;52.122;5.404;2023-08-01T10:03:49;5.18;;;1.08;;
71973;SDS011;59840;52.122;5.404;2023-08-01T10:06:18;3.15;;;1.35;;
71973;SDS011;59840;52.122;5.404;2023-08-01T10:08:46;5.13;;;1.38;;
71973;SDS011;59840;52.122;5.404;2023-08-01T10:11:14;5.63;;;1.20;;
71973;SDS011;59840;52.122;5.404;2023-08-01T10:13:43;4.72;;;1.35;;
71973;SDS011;59840;52.122;5.404;2023-08-01T10:16:10;3.30;;;1.10;;
71973;SDS011;59840;52.122;5.404;2023-08-01T10:18:38;5.20;;;1.00;;
71973;SDS011;59840;52.122;5.404;2023-08-01T10:21:06;3.63;;;1.20;;
71973;SDS011;59840;52.122;5.404;2023-08-01T10:23:34;3.30;;;1.50;;
71973;SDS011;59840;52.122;5.404;2023-08-01T10:26:03;9.02;;;1.08;;
71973;SDS011;59840;52.122;5.404;2023-08-01T10:28:35;4.75;;;1.08;;
71973;SDS011;59840;52.122;5.404;2023-08-01T10:31:10;1.63;;;1.13;;
71973;SDS011;59840;52.122;5.404;2023-08-01T10:33:42;2.80;;;0.93;;
71973;SDS011;59840;52.122;5.404;2023-08-01T10:36:17;4.43;;;1.17;;
71973;SDS011;59840;52.122;5.404;2023-08-01T10:38:50;3.60;;;1.38;;
71973;SDS011;59840;52.122;5.404;2023-08-01T10:41:24;3.78;;;0.80;;
71973;SDS011;59840;52.122;5.404;2023-08-01T10:44:04;3.03;;;0.90;;
71973;SDS011;59840;52.122;5.404;2023-08-01T10:52:20;5.88;;;1.30;;
71973;SDS011;59840;52.122;5.404;2023-08-01T10:54:56;4.25;;;0.80;;
71973;SDS011;59840;52.122;5.404;2023-08-01T10:57:27;2.15;;;0.73;;
71973;SDS011;59840;52.122;5.404;2023-08-01T10:59:56;1.83;;;1.35;;
71973;SDS011;59840;52.122;5.404;2023-08-01T11:02:24;2.77;;;1.03;;
71973;SDS011;59840;52.122;5.404;2023-08-01T11:04:59;2.92;;;1.08;;
71973;SDS011;59840;52.122;5.404;2023-08-01T11:07:27;2.65;;;0.80;;
71973;SDS011;59840;52.122;5.404;2023-08-01T11:12:35;0.82;;;0.50;;
71973;SDS011;59840;52.122;5.404;2023-08-01T11:15:03;4.00;;;0.80;;
71973;SDS011;59840;52.122;5.404;2023-08-01T11:17:32;2.70;;;0.80;;
71973;SDS011;59840;52.122;5.404;2023-08-01T11:20:06;2.25;;;0.75;;
71973;SDS011;59840;52.122;5.404;2023-08-01T11:22:37;3.15;;;1.00;;
71973;SDS011;59840;52.122;5.404;2023-08-01T11:25:14;4.28;;;0.90;;
71973;SDS011;59840;52.122;5.404;2023-08-01T11:27:41;4.60;;;0.90;;
71973;SDS011;59840;52.122;5.404;2023-08-01T11:30:08;1.50;;;0.70;;
71973;SDS011;59840;52.122;5.404;2023-08-01T11:32:36;3.70;;;0.75;;
71973;SDS011;59840;52.122;5.404;2023-08-01T11:35:03;3.30;;;1.27;;
71973;SDS011;59840;52.122;5.404;2023-08-01T11:37:31;3.45;;;0.88;;
71973;SDS011;59840;52.122;5.404;2023-08-01T11:39:59;2.13;;;0.80;;
71973;SDS011;59840;52.122;5.404;2023-08-01T11:42:29;3.55;;;1.13;;
71973;SDS011;59840;52.122;5.404;2023-08-01T11:45:10;1.75;;;0.60;;
71973;SDS011;59840;52.122;5.404;2023-08-01T11:47:44;3.55;;;0.85;;
71973;SDS011;59840;52.122;5.404;2023-08-01T11:50:11;2.17;;;0.90;;
71973;SDS011;59840;52.122;5.404;2023-08-01T11:52:38;3.50;;;0.80;;
71973;SDS011;59840;52.122;5.404;2023-08-01T11:55:05;5.03;;;0.70;;
71973;SDS011;59840;52.122;5.404;2023-08-01T11:57:32;2.67;;;0.80;;
71973;SDS011;59840;52.122;5.404;2023-08-01T11:59:58;2.65;;;0.80;;
71973;SDS011;59840;52.122;5.404;2023-08-01T12:02:25;1.90;;;0.75;;
71973;SDS011;59840;52.122;5.404;2023-08-01T12:04:54;3.17;;;0.93;;
71973;SDS011;59840;52.122;5.404;2023-08-01T12:07:21;3.45;;;1.13;;
71973;SDS011;59840;52.122;5.404;2023-08-01T12:09:57;5.43;;;1.20;;
71973;SDS011;59840;52.122;5.404;2023-08-01T12:12:28;3.45;;;1.05;;
71973;SDS011;59840;52.122;5.404;2023-08-01T12:14:55;2.03;;;1.05;;
71973;SDS011;59840;52.122;5.404;2023-08-01T12:17:22;4.40;;;1.10;;
71973;SDS011;59840;52.122;5.404;2023-08-01T12:19:49;2.20;;;0.90;;
71973;SDS011;59840;52.122;5.404;2023-08-01T12:22:16;3.13;;;0.90;;
71973;SDS011;59840;52.122;5.404;2023-08-01T12:24:42;4.68;;;0.80;;
71973;SDS011;59840;52.122;5.404;2023-08-01T12:27:09;1.73;;;0.90;;
71973;SDS011;59840;52.122;5.404;2023-08-01T12:29:36;4.73;;;1.00;;
71973;SDS011;59840;52.122;5.404;2023-08-01T12:32:03;2.72;;;0.82;;
71973;SDS011;59840;52.122;5.404;2023-08-01T12:34:30;2.95;;;0.82;;
71973;SDS011;59840;52.122;5.404;2023-08-01T12:36:57;4.07;;;0.98;;
71973;SDS011;59840;52.122;5.404;2023-08-01T12:39:23;6.90;;;1.10;;
71973;SDS011;59840;52.122;5.404;2023-08-01T12:41:53;6.30;;;0.97;;
71973;SDS011;59840;52.122;5.404;2023-08-01T12:44:22;3.83;;;1.00;;
71973;SDS011;59840;52.122;5.404;2023-08-01T12:46:49;2.92;;;0.80;;
71973;SDS011;59840;52.122;5.404;2023-08-01T12:49:17;5.88;;;1.00;;
71973;SDS011;59840;52.122;5.404;2023-08-01T12:51:44;5.40;;;0.90;;
71973;SDS011;59840;52.122;5.404;2023-08-01T12:54:11;2.30;;;1.17;;
71973;SDS011;59840;52.122;5.404;2023-08-01T12:56:37;3.63;;;0.70;;
71973;SDS011;59840;52.122;5.404;2023-08-01T12:59:04;1.52;;;0.50;;
71973;SDS011;59840;52.122;5.404;2023-08-01T13:01:31;4.57;;;0.60;;
71973;SDS011;59840;52.122;5.404;2023-08-01T13:03:57;1.52;;;0.60;;
71973;SDS011;59840;52.122;5.404;2023-08-01T13:06:24;4.00;;;0.70;;
71973;SDS011;59840;52.122;5.404;2023-08-01T13:08:51;3.50;;;0.70;;
71973;SDS011;59840;52.122;5.404;2023-08-01T13:11:17;1.73;;;0.90;;
71973;SDS011;59840;52.122;5.404;2023-08-01T13:13:44;2.63;;;1.00;;
71973;SDS011;59840;52.122;5.404;2023-08-01T13:16:12;3.30;;;1.13;;
71973;SDS011;59840;52.122;5.404;2023-08-01T13:18:39;3.30;;;0.70;;
71973;SDS011;59840;52.122;5.404;2023-08-01T13:21:10;4.45;;;1.30;;
71973;SDS011;59840;52.122;5.404;2023-08-01T13:23:39;4.07;;;1.15;;
71973;SDS011;59840;52.122;5.404;2023-08-01T13:26:05;2.08;;;0.90;;
71973;SDS011;59840;52.122;5.404;2023-08-01T13:28:32;4.55;;;0.95;;
71973;SDS011;59840;52.122;5.404;2023-08-01T13:30:58;2.87;;;1.00;;
71973;SDS011;59840;52.122;5.404;2023-08-01T13:33:25;2.95;;;0.90;;
71973;SDS011;59840;52.122;5.404;2023-08-01T13:35:52;3.38;;;0.95;;
71973;SDS011;59840;52.122;5.404;2023-08-01T13:38:20;5.03;;;1.10;;
71973;SDS011;59840;52.122;5.404;2023-08-01T13:40:46;3.60;;;1.10;;
71973;SDS011;59840;52.122;5.404;2023-08-01T13:43:13;6.03;;;1.10;;
71973;SDS011;59840;52.122;5.404;2023-08-01T13:45:40;4.88;;;0.95;;
71973;SDS011;59840;52.122;5.404;2023-08-01T13:48:07;3.53;;;1.00;;
71973;SDS011;59840;52.122;5.404;2023-08-01T13:50:34;4.00;;;1.40;;
71973;SDS011;59840;52.122;5.404;2023-08-01T13:53:00;5.97;;;1.38;;
71973;SDS011;59840;52.122;5.404;2023-08-01T13:55:27;2.40;;;0.63;;
71973;SDS011;59840;52.122;5.404;2023-08-01T13:57:53;5.47;;;0.75;;
71973;SDS011;59840;52.122;5.404;2023-08-01T14:00:20;4.38;;;1.00;;
71973;SDS011;59840;52.122;5.404;2023-08-01T14:02:48;2.58;;;1.27;;
71973;SDS011;59840;52.122;5.404;2023-08-01T14:05:16;3.60;;;0.65;;
71973;SDS011;59840;52.122;5.404;2023-08-01T14:07:43;3.20;;;0.90;;
71973;SDS011;59840;52.122;5.404;2023-08-01T14:10:10;3.92;;;1.05;;
71973;SDS011;59840;52.122;5.404;2023-08-01T14:12:37;1.35;;;0.73;;
71973;SDS011;59840;52.122;5.404;2023-08-01T14:15:04;4.53;;;0.90;;
71973;SDS011;59840;52.122;5.404;2023-08-01T14:17:31;3.92;;;1.23;;
71973;SDS011;59840;52.122;5.404;2023-08-01T14:19:58;1.60;;;0.97;;
71973;SDS011;59840;52.122;5.404;2023-08-01T14:22:25;3.10;;;0.90;;
71973;SDS011;59840;52.122;5.404;2023-08-01T14:24:52;2.97;;;1.17;;
71973;SDS011;59840;52.122;5.404;2023-08-01T14:27:18;4.10;;;1.00;;
71973;SDS011;59840;52.122;5.404;2023-08-01T14:29:45;2.40;;;0.90;;
71973;SDS011;59840;52.122;5.404;2023-08-01T14:32:11;2.43;;;0.70;;
71973;SDS011;59840;52.122;5.404;2023-08-01T14:34:38;4.30;;;0.75;;
71973;SDS011;59840;52.122;5.404;2023-08-01T14:37:04;2.72;;;0.80;;
71973;SDS011;59840;52.122;5.404;2023-08-01T14:39:31;3.08;;;0.90;;
71973;SDS011;59840;52.122;5.404;2023-08-01T14:41:58;2.70;;;0.90;;
71973;SDS011;59840;52.122;5.404;2023-08-01T14:44:31;3.83;;;1.13;;
71973;SDS011;59840;52.122;5.404;2023-08-01T14:46:57;3.75;;;0.80;;
71973;SDS011;59840;52.122;5.404;2023-08-01T14:49:24;5.22;;;0.80;;
71973;SDS011;59840;52.122;5.404;2023-08-01T14:51:53;2.08;;;0.70;;
71973;SDS011;59840;52.122;5.404;2023-08-01T14:54:20;2.20;;;0.60;;
71973;SDS011;59840;52.122;5.404;2023-08-01T14:57:05;3.37;;;1.10;;
71973;SDS011;59840;52.122;5.404;2023-08-01T14:59:31;2.58;;;0.70;;
71973;SDS011;59840;52.122;5.404;2023-08-01T15:01:58;5.05;;;0.70;;